Time;durP1;ratioP1;P1;durP2;ratioP2;P2;SDS_P1;SDS_P2;PMS_P1;PMS_P2;Temp;Humidity;BMP_temperature;BMP_pressure;BME280_temperature;BME280_humidity;BME280_pressure;Samples;Min_cycle;Max_cycle;Signal;HPM_P1;HPM_P2
2020/12/09 00:00:12;;;;;;;9.28;5.45;;;;;;;-1.41;88.85;96260.66;1769579;80;21564;-82
2020/12/09 00:02:41;;;;;;;6.33;3.67;;;;;;;-1.41;88.43;96261.96;1770595;80;21491;-82
2020/12/09 00:05:12;;;;;;;9.45;4.90;;;;;;;-1.41;88.43;96261.96;1770385;80;21257;-82
2020/12/09 00:07:40;;;;;;;11.15;5.65;;;;;;;-1.43;88.42;96274.37;1770512;80;21262;-82
2020/12/09 00:10:08;;;;;;;18.15;8.35;;;;;;;-1.47;88.47;96267.22;1770361;81;21285;-82
2020/12/09 00:12:35;;;;;;;7.62;4.22;;;;;;;-1.44;88.77;96269.39;1770915;79;21174;-82
2020/12/09 00:15:09;;;;;;;21.23;9.33;;;;;;;-1.40;89.03;96271.38;1770454;80;21131;-82
2020/12/09 00:17:37;;;;;;;16.73;7.33;;;;;;;-1.34;89.12;96270.52;1769713;80;21137;-82
2020/12/09 00:20:06;;;;;;;9.58;4.87;;;;;;;-1.32;88.99;96275.51;1769595;81;21495;-82
2020/12/09 00:22:35;;;;;;;13.85;5.12;;;;;;;-1.36;88.72;96266.04;1769667;81;21507;-82
2020/12/09 00:25:05;;;;;;;7.22;3.90;;;;;;;-1.47;88.56;96275.02;1769688;81;21284;-82
2020/12/09 00:27:34;;;;;;;8.15;3.62;;;;;;;-1.56;88.57;96273.16;1769759;81;21138;-82
2020/12/09 00:30:02;;;;;;;3.50;2.50;;;;;;;-1.55;88.78;96277.35;1769505;81;21111;-81
2020/12/09 00:32:37;;;;;;;11.43;6.30;;;;;;;-1.57;88.95;96278.07;1769576;81;21139;-82
2020/12/09 00:35:08;;;;;;;11.83;6.28;;;;;;;-1.56;89.38;96291.36;1769849;81;21123;-82
2020/12/09 00:37:36;;;;;;;8.83;5.00;;;;;;;-1.47;89.56;96287.51;1769866;81;21146;-83
2020/12/09 00:40:07;;;;;;;4.37;2.83;;;;;;;-1.39;89.48;96285.97;1769506;81;21107;-82
2020/12/09 00:42:35;;;;;;;5.83;2.75;;;;;;;-1.36;89.43;96289.95;1770091;79;21502;-82
2020/12/09 00:45:04;;;;;;;6.62;3.58;;;;;;;-1.33;89.30;96289.52;1769555;81;21491;-82
2020/12/09 00:47:31;;;;;;;10.98;5.90;;;;;;;-1.33;89.14;96296.02;1769840;81;21135;-82
2020/12/09 00:50:27;;;;;;;9.68;5.60;;;;;;;-1.36;88.91;96297.24;1769491;81;21142;-82
2020/12/09 00:52:31;;;;;;;9.68;6.08;;;;;;;-1.42;88.59;96290.77;1766888;81;21167;-82
2020/12/09 00:54:58;;;;;;;7.67;4.60;;;;;;;-1.54;88.26;96291.97;1769516;81;21163;-82
2020/12/09 00:57:25;;;;;;;10.45;4.72;;;;;;;-1.58;88.08;96292.08;1769803;80;21175;-82
2020/12/09 00:59:52;;;;;;;9.33;4.90;;;;;;;-1.64;87.91;96292.42;1769483;81;21172;-82
2020/12/09 01:02:19;;;;;;;6.03;3.33;;;;;;;-1.61;87.97;96298.49;1769674;80;21136;-82
2020/12/09 01:04:49;;;;;;;7.50;4.25;;;;;;;-1.57;87.98;96300.16;1769546;81;21616;-82
2020/12/09 01:07:15;;;;;;;9.45;4.35;;;;;;;-1.65;87.78;96299.13;1769400;81;21131;-82
2020/12/09 01:09:42;;;;;;;8.65;4.33;;;;;;;-1.77;87.77;96291.70;1769482;81;21168;-82
2020/12/09 01:12:10;;;;;;;8.33;4.80;;;;;;;-1.77;87.77;96291.70;1770118;79;21527;-82
2020/12/09 01:14:38;;;;;;;7.42;4.08;;;;;;;-1.81;87.85;96288.72;1769780;81;21162;-82
2020/12/09 01:17:05;;;;;;;6.33;3.42;;;;;;;-1.81;88.15;96292.12;1769936;81;21305;-82
2020/12/09 01:19:32;;;;;;;4.55;2.77;;;;;;;-1.74;88.49;96292.06;1770348;81;21514;-82
2020/12/09 01:22:01;;;;;;;6.85;3.10;;;;;;;-1.68;88.64;96289.16;1770590;80;21257;-82
2020/12/09 01:24:28;;;;;;;4.90;2.55;;;;;;;-1.69;88.90;96292.26;1770220;80;21171;-82
2020/12/09 01:26:55;;;;;;;5.87;3.60;;;;;;;-1.62;89.35;96286.50;1770448;81;21152;-82
2020/12/09 01:29:22;;;;;;;6.67;3.83;;;;;;;-1.57;89.47;96287.96;1770446;80;21269;-82
2020/12/09 01:31:48;;;;;;;9.00;4.62;;;;;;;-1.57;89.42;96291.06;1770801;80;21163;-82
2020/12/09 01:34:15;;;;;;;7.65;4.08;;;;;;;-1.60;89.39;96296.69;1770456;81;21151;-82
2020/12/09 01:36:43;;;;;;;8.60;4.30;;;;;;;-1.65;89.36;96295.23;1770744;81;21281;-82
2020/12/09 01:39:10;;;;;;;4.45;3.00;;;;;;;-1.67;89.30;96294.14;1770590;80;21653;-82
2020/12/09 01:41:37;;;;;;;6.90;3.58;;;;;;;-1.67;89.27;96289.45;1771039;79;21649;-82
2020/12/09 01:44:04;;;;;;;9.55;4.85;;;;;;;-1.66;89.31;96285.34;1770570;80;21289;-82
2020/12/09 01:46:32;;;;;;;5.45;3.42;;;;;;;-1.63;89.46;96282.81;1770582;80;21499;-82
2020/12/09 01:49:00;;;;;;;7.60;4.58;;;;;;;-1.65;89.43;96282.23;1770691;81;21285;-82
2020/12/09 01:51:30;;;;;;;10.40;4.55;;;;;;;-1.68;89.57;96278.77;1770528;80;21686;-82
2020/12/09 01:54:00;;;;;;;6.03;3.20;;;;;;;-1.68;89.57;96280.86;1770815;81;21131;-82
2020/12/09 01:56:29;;;;;;;7.75;4.00;;;;;;;-1.62;89.57;96284.41;1770573;80;21289;-82
2020/12/09 01:58:56;;;;;;;5.90;3.55;;;;;;;-1.60;89.45;96279.80;1770798;80;21162;-82
2020/12/09 02:01:23;;;;;;;6.62;3.25;;;;;;;-1.59;89.40;96285.28;1770469;80;21172;-82
2020/12/09 02:03:51;;;;;;;4.92;2.20;;;;;;;-1.58;89.35;96283.77;1770601;80;21261;-82
2020/12/09 02:06:19;;;;;;;4.05;2.40;;;;;;;-1.55;89.21;96285.16;1770557;80;21257;-82
2020/12/09 02:08:47;;;;;;;5.80;3.08;;;;;;;-1.58;88.97;96278.58;1770517;80;21502;-82
2020/12/09 02:11:15;;;;;;;6.47;3.62;;;;;;;-1.59;88.81;96283.48;1770530;81;21158;-82
2020/12/09 02:13:45;;;;;;;5.85;3.00;;;;;;;-1.63;88.64;96278.92;1770998;79;21130;-82
2020/12/09 02:16:13;;;;;;;6.97;3.60;;;;;;;-1.64;88.63;96278.62;1770731;80;21127;-82
2020/12/09 02:18:42;;;;;;;4.17;2.85;;;;;;;-1.63;88.69;96277.62;1769673;80;21543;-82
2020/12/09 02:21:09;;;;;;;4.70;2.80;;;;;;;-1.59;88.80;96279.58;1769729;80;21100;-82
2020/12/09 02:23:36;;;;;;;6.62;2.95;;;;;;;-1.59;88.79;96282.69;1769670;81;21142;-82
2020/12/09 02:26:03;;;;;;;4.58;2.60;;;;;;;-1.64;88.78;96276.83;1769741;81;21154;-82
2020/12/09 02:28:30;;;;;;;4.70;2.92;;;;;;;-1.65;88.95;96282.23;1769660;81;21132;-82
2020/12/09 02:30:57;;;;;;;6.37;3.02;;;;;;;-1.70;89.35;96283.34;1769667;81;21159;-82
2020/12/09 02:33:25;;;;;;;5.55;2.77;;;;;;;-1.65;89.55;96283.53;1769677;80;21492;-82
2020/12/09 02:35:52;;;;;;;6.03;3.62;;;;;;;-1.55;89.82;96289.05;1769732;80;21503;-82
2020/12/09 02:38:19;;;;;;;6.87;3.37;;;;;;;-1.61;88.98;96286.00;1769596;81;21147;-82
2020/12/09 02:40:46;;;;;;;6.10;3.52;;;;;;;-1.79;88.73;96280.21;1769670;81;21205;-82
2020/12/09 02:43:13;;;;;;;6.33;3.62;;;;;;;-1.86;88.46;96280.23;1770200;79;21171;-82
2020/12/09 02:45:40;;;;;;;7.95;4.35;;;;;;;-1.93;88.18;96287.27;1769603;81;21151;-82
2020/12/09 02:48:07;;;;;;;7.20;3.60;;;;;;;-1.91;88.44;96281.37;1769618;81;21488;-82
2020/12/09 02:50:34;;;;;;;7.37;3.47;;;;;;;-1.99;88.13;96279.00;1769741;81;21161;-82
2020/12/09 02:53:01;;;;;;;6.55;2.87;;;;;;;-2.03;88.10;96279.13;1769763;81;21511;-82
2020/12/09 02:55:28;;;;;;;5.78;2.60;;;;;;;-2.08;88.06;96279.45;1769794;81;21120;-80
2020/12/09 02:57:55;;;;;;;7.50;3.12;;;;;;;-2.14;88.06;96273.27;1769721;81;21507;-80
2020/12/09 03:00:22;;;;;;;10.82;4.72;;;;;;;-2.11;88.25;96279.38;1801450;79;21507;-80
2020/12/09 03:02:49;;;;;;;9.35;4.78;;;;;;;-2.04;88.39;96279.33;1818712;79;21147;-80
2020/12/09 03:05:16;;;;;;;8.68;4.10;;;;;;;-2.05;88.43;96280.34;1818706;79;21174;-80
2020/12/09 03:07:43;;;;;;;11.45;6.22;;;;;;;-2.03;88.46;96278.33;1818769;79;21120;-80
2020/12/09 03:10:10;;;;;;;13.98;7.10;;;;;;;-2.02;88.51;96276.81;1818787;79;21104;-81
2020/12/09 03:12:37;;;;;;;12.35;6.10;;;;;;;-1.99;88.60;96273.80;1793721;79;21162;-80
2020/12/09 03:15:05;;;;;;;10.25;5.37;;;;;;;-1.96;88.75;96263.52;1769753;81;21107;-80
2020/12/09 03:17:32;;;;;;;10.93;5.72;;;;;;;-1.96;88.83;96270.02;1769947;81;21131;-80
2020/12/09 03:19:59;;;;;;;13.72;6.60;;;;;;;-1.94;89.17;96271.40;1770414;81;21140;-80
2020/12/09 03:22:26;;;;;;;15.35;8.25;;;;;;;-1.90;89.27;96275.16;1770428;80;21147;-80
2020/12/09 03:24:53;;;;;;;13.72;7.15;;;;;;;-1.82;89.53;96276.73;1770491;80;21100;-80
2020/12/09 03:27:20;;;;;;;12.20;5.97;;;;;;;-1.76;89.60;96286.79;1770512;80;21522;-80
2020/12/09 03:29:47;;;;;;;12.18;6.67;;;;;;;-1.71;89.70;96283.05;1770590;81;21273;-81
2020/12/09 03:32:15;;;;;;;10.85;6.12;;;;;;;-1.69;89.72;96296.63;1770368;81;21147;-80
2020/12/09 03:34:42;;;;;;;11.50;6.67;;;;;;;-1.65;89.90;96296.02;1770579;80;21288;-80
2020/12/09 03:37:08;;;;;;;10.63;6.37;;;;;;;-1.66;89.95;96287.14;1770424;80;21471;-80
2020/12/09 03:39:35;;;;;;;13.20;7.20;;;;;;;-1.69;89.80;96294.86;1770477;80;21301;-81
2020/12/09 03:42:02;;;;;;;13.35;6.92;;;;;;;-1.68;89.78;96289.95;1771022;79;21502;-80
2020/12/09 03:44:29;;;;;;;11.33;6.53;;;;;;;-1.82;88.96;96288.43;1770455;80;21142;-80
2020/12/09 03:46:57;;;;;;;11.57;5.95;;;;;;;-2.01;88.54;96286.70;1770404;80;21127;-80
2020/12/09 03:49:25;;;;;;;12.40;6.85;;;;;;;-2.15;88.21;96283.36;1770407;81;21261;-80
2020/12/09 03:51:53;;;;;;;11.30;5.78;;;;;;;-2.13;88.21;96280.05;1770425;81;21521;-80
2020/12/09 03:54:20;;;;;;;11.40;6.30;;;;;;;-2.12;88.15;96286.84;1770456;80;21155;-80
2020/12/09 03:56:47;;;;;;;9.70;5.25;;;;;;;-2.20;88.08;96285.30;1770467;80;21285;-80
2020/12/09 03:59:14;;;;;;;12.10;6.90;;;;;;;-2.20;88.08;96285.30;1770386;81;21112;-80
2020/12/09 04:01:41;;;;;;;16.52;8.65;;;;;;;-2.27;88.77;96290.20;1770458;80;21281;-80
2020/12/09 04:04:08;;;;;;;9.83;5.92;;;;;;;-2.27;89.05;96287.09;1770676;80;21628;-80
2020/12/09 04:06:36;;;;;;;8.58;5.37;;;;;;;-2.24;89.04;96284.62;1770557;80;21277;-80
2020/12/09 04:09:04;;;;;;;7.67;5.15;;;;;;;-2.24;88.85;96288.01;1770400;80;21139;-80
2020/12/09 04:11:32;;;;;;;10.28;5.53;;;;;;;-2.21;88.84;96286.30;1770834;79;21162;-80
2020/12/09 04:13:59;;;;;;;9.85;5.03;;;;;;;-2.17;88.83;96283.58;1770419;80;21492;-80
2020/12/09 04:16:26;;;;;;;10.85;5.67;;;;;;;-2.12;88.97;96286.84;1770484;80;21709;-80
2020/12/09 04:18:53;;;;;;;10.58;5.83;;;;;;;-2.08;88.79;96291.94;1769665;80;21253;-80
2020/12/09 04:21:20;;;;;;;10.93;5.47;;;;;;;-2.12;88.58;96288.94;1769509;81;21172;-80
2020/12/09 04:23:47;;;;;;;9.88;5.42;;;;;;;-2.15;88.38;96289.36;1769621;81;21261;-80
2020/12/09 04:26:14;;;;;;;11.03;5.62;;;;;;;-2.18;88.28;96285.88;1769571;80;21139;-80
2020/12/09 04:28:41;;;;;;;12.45;6.25;;;;;;;-2.20;88.42;96274.11;1769616;81;21518;-80
2020/12/09 04:31:08;;;;;;;11.15;6.75;;;;;;;-2.17;88.58;96273.69;1769751;81;21192;-80
2020/12/09 04:33:36;;;;;;;9.35;6.00;;;;;;;-2.11;88.62;96278.08;1769613;81;21146;-80
2020/12/09 04:36:04;;;;;;;11.90;6.62;;;;;;;-2.08;88.60;96276.36;1769602;81;21127;-80
2020/12/09 04:38:31;;;;;;;12.53;5.58;;;;;;;-2.11;88.31;96283.27;1769532;80;21135;-80
2020/12/09 04:40:58;;;;;;;10.50;5.22;;;;;;;-2.16;88.12;96286.97;1769589;80;21144;-80
2020/12/09 04:43:25;;;;;;;11.05;5.72;;;;;;;-2.17;88.00;96280.98;1770062;79;21151;-80
2020/12/09 04:45:52;;;;;;;9.83;5.47;;;;;;;-2.17;87.97;96278.88;1769885;81;21152;-80
2020/12/09 04:48:23;;;;;;;9.78;5.22;;;;;;;-2.16;87.98;96281.77;1769489;81;21257;-80
2020/12/09 04:50:59;;;;;;;;;;;;;;;-2.15;88.02;96283.36;1755168;81;21176;-80
2020/12/09 04:53:31;;;;;;;9.18;4.70;;;;;;;-2.18;87.97;96278.09;1767087;81;20373;-81
2020/12/09 04:56:00;;;;;;;9.35;5.08;;;;;;;-2.31;87.73;96272.15;1769862;81;21138;-81
2020/12/09 04:58:48;;;;;;;9.53;4.55;;;;;;;-2.38;87.74;96272.19;1769596;81;21138;-81
2020/12/09 05:01:16;;;;;;;10.43;5.37;;;;;;;-2.38;87.74;96279.17;1768980;81;21495;-81
2020/12/09 05:03:52;;;;;;;34.88;23.50;;;;;;;-2.33;87.80;96274.16;1769519;81;21107;-81
2020/12/09 05:06:20;;;;;;;22.80;14.05;;;;;;;-2.32;87.95;96280.94;1769621;80;21120;-81
2020/12/09 05:08:58;;;;;;;11.43;5.97;;;;;;;-2.33;88.05;96284.54;1769484;81;21143;-81
2020/12/09 05:11:28;;;;;;;9.90;5.33;;;;;;;-2.35;88.25;96281.36;1770042;79;21151;-82
2020/12/09 05:13:59;;;;;;;10.08;6.03;;;;;;;-2.33;88.54;96278.05;1751827;81;21104;-82
2020/12/09 05:16:27;;;;;;;10.50;5.75;;;;;;;-2.26;88.83;96281.41;1769745;81;21301;-81
2020/12/09 05:19:00;;;;;;;9.55;5.40;;;;;;;-2.21;88.96;96277.20;1770094;80;21543;-82
2020/12/09 05:21:29;;;;;;;8.43;4.90;;;;;;;-2.15;89.06;96274.28;1770464;80;21314;-82
2020/12/09 05:24:00;;;;;;;10.48;4.62;;;;;;;-2.18;88.59;96273.40;1770360;80;21147;-81
2020/12/09 05:26:31;;;;;;;10.30;5.60;;;;;;;-2.22;88.47;96265.23;1770384;80;21285;-82
2020/12/09 05:29:06;;;;;;;7.70;5.00;;;;;;;-2.20;88.35;96269.71;1770337;80;21124;-82
2020/12/09 05:31:35;;;;;;;11.78;6.25;;;;;;;-2.18;88.33;96264.31;1766805;80;21142;-82
2020/12/09 05:34:20;;;;;;;10.45;6.28;;;;;;;-2.27;88.02;96265.53;1770362;80;21140;-81
2020/12/09 05:36:50;;;;;;;11.10;5.83;;;;;;;-2.44;87.88;96268.59;1770604;80;21307;-81
2020/12/09 05:39:18;;;;;;;10.03;4.85;;;;;;;-2.52;88.11;96277.12;1770439;80;21280;-81
2020/12/09 05:41:45;;;;;;;7.12;3.02;;;;;;;-2.53;88.24;96278.92;1770912;79;21134;-81
2020/12/09 05:44:13;;;;;;;7.22;4.00;;;;;;;-2.59;88.23;96284.11;1770311;81;21167;-81
2020/12/09 05:47:02;;;;;;;8.08;4.35;;;;;;;-2.62;88.37;96277.53;1770586;80;21506;-81
2020/12/09 05:49:32;;;;;;;6.30;3.60;;;;;;;-2.56;88.48;96273.31;1770361;80;21115;-81
2020/12/09 05:52:10;;;;;;;7.65;4.42;;;;;;;-2.55;88.36;96268.42;1770456;80;21139;-81
2020/12/09 05:54:43;;;;;;;6.78;4.00;;;;;;;-2.51;88.31;96266.53;1770401;81;21147;-81
2020/12/09 05:57:16;;;;;;;10.20;5.08;;;;;;;-2.45;88.33;96260.51;1770205;80;21147;-81
2020/12/09 05:59:48;;;;;;;8.98;4.83;;;;;;;-2.48;87.93;96257.03;1770349;80;21602;-81
2020/12/09 06:02:20;;;;;;;31.77;15.85;;;;;;;-2.67;87.55;96268.27;1770820;80;21156;-81
2020/12/09 06:04:55;;;;;;;19.98;11.45;;;;;;;-2.73;87.47;96266.47;1770614;80;21261;-81
2020/12/09 06:07:29;;;;;;;18.02;9.28;;;;;;;-2.76;87.46;96273.37;1770247;80;21257;-81
2020/12/09 06:10:17;;;;;;;18.85;10.35;;;;;;;-2.79;87.30;96275.08;1770548;80;21151;-81
2020/12/09 06:12:59;;;;;;;15.90;8.40;;;;;;;-2.78;87.19;96284.45;1770790;79;21155;-81
2020/12/09 06:15:32;;;;;;;20.00;9.98;;;;;;;-2.84;86.82;96288.63;1770764;80;21115;-81
2020/12/09 06:18:13;;;;;;;23.75;11.55;;;;;;;-3.06;86.26;96294.55;1770218;80;21285;-81
2020/12/09 06:20:42;;;;;;;27.52;13.75;;;;;;;-3.24;85.86;96295.63;1769616;81;21176;-81
2020/12/09 06:23:15;;;;;;;27.13;13.90;;;;;;;-3.33;85.67;96300.73;1769644;81;21452;-81
2020/12/09 06:25:45;;;;;;;25.97;12.58;;;;;;;-3.35;85.73;96297.53;1769777;81;21118;-81
2020/12/09 06:28:19;;;;;;;31.35;15.65;;;;;;;-3.43;85.69;96304.19;1769724;81;21135;-81
2020/12/09 06:30:49;;;;;;;33.88;17.67;;;;;;;-3.65;85.49;96297.90;1769876;80;21539;-81
2020/12/09 06:33:32;;;;;;;33.80;18.32;;;;;;;-3.79;85.42;96310.52;1769629;81;21531;-81
2020/12/09 06:36:22;;;;;;;32.95;18.90;;;;;;;-3.95;85.30;96317.31;1769618;81;21479;-81
2020/12/09 06:39:08;;;;;;;;;;;;;;;-4.05;85.44;96320.78;1762892;81;21536;-80
2020/12/09 06:41:56;;;;;;;32.45;17.10;;;;;;;-3.90;86.04;96330.50;1770317;79;20119;-81
2020/12/09 06:44:29;;;;;;;38.65;19.32;;;;;;;-3.71;86.43;96328.95;1769679;81;21475;-81
2020/12/09 06:46:59;;;;;;;38.33;20.27;;;;;;;-3.62;86.43;96324.70;1770004;81;21427;-81
2020/12/09 06:49:35;;;;;;;24.45;13.65;;;;;;;-3.72;86.05;96326.06;1769679;81;21150;-81
2020/12/09 06:52:14;;;;;;;32.38;19.20;;;;;;;-3.85;85.90;96333.29;1769905;81;21135;-81
2020/12/09 06:54:49;;;;;;;32.33;19.50;;;;;;;-3.95;85.93;96337.53;1769682;81;21158;-81
2020/12/09 06:57:33;;;;;;;29.18;18.37;;;;;;;-3.98;86.11;96336.63;1769908;81;21471;-80
2020/12/09 07:00:21;;;;;;;31.50;17.40;;;;;;;-4.02;86.30;96339.80;1761887;81;21143;-81
2020/12/09 07:02:52;;;;;;;28.80;16.55;;;;;;;-3.96;86.58;96337.23;1769746;81;21495;-80
2020/12/09 07:05:29;;;;;;;31.20;18.90;;;;;;;-3.75;86.89;96332.44;1769905;81;21123;-80
2020/12/09 07:08:04;;;;;;;37.23;19.57;;;;;;;-3.67;87.01;96336.13;1769571;80;21147;-80
2020/12/09 07:10:35;;;;;;;36.45;20.50;;;;;;;-3.45;87.37;96335.48;1769671;81;21467;-81
2020/12/09 07:13:15;;;;;;;31.80;18.42;;;;;;;-3.22;87.55;96340.81;1770277;79;21174;-81
2020/12/09 07:15:47;;;;;;;33.00;18.50;;;;;;;-3.06;87.58;96342.52;1769800;81;21487;-80
2020/12/09 07:18:15;;;;;;;31.95;17.87;;;;;;;-2.96;87.51;96337.41;1769596;81;21139;-80
2020/12/09 07:20:43;;;;;;;31.77;18.00;;;;;;;-2.90;87.49;96343.91;1770409;80;21688;-80
2020/12/09 07:23:11;;;;;;;27.73;16.75;;;;;;;-2.93;87.37;96346.91;1770354;81;21166;-80
2020/12/09 07:25:39;;;;;;;35.95;20.10;;;;;;;-3.01;87.33;96340.12;1770422;80;21151;-80
2020/12/09 07:28:07;;;;;;;34.55;20.23;;;;;;;-3.01;87.51;96336.23;1770420;80;21529;-80
2020/12/09 07:30:35;;;;;;;35.33;20.88;;;;;;;-2.94;87.66;96337.54;1770427;80;21302;-80
2020/12/09 07:33:02;;;;;;;35.85;20.55;;;;;;;-2.84;87.82;96338.41;1770373;81;21523;-80
2020/12/09 07:35:30;;;;;;;34.80;21.00;;;;;;;-2.78;87.84;96342.82;1770378;80;21131;-80
2020/12/09 07:37:59;;;;;;;28.98;18.05;;;;;;;-2.73;87.91;96345.59;1770385;80;21670;-80
2020/12/09 07:40:33;;;;;;;31.90;18.00;;;;;;;-2.62;88.13;96341.10;1770370;80;21650;-80
2020/12/09 07:43:10;;;;;;;28.87;17.42;;;;;;;-2.46;88.29;96342.47;1771013;79;21120;-80
2020/12/09 07:45:45;;;;;;;29.25;16.42;;;;;;;-2.31;88.46;96338.34;1770374;80;21486;-80
2020/12/09 07:48:17;;;;;;;27.37;16.80;;;;;;;-2.18;88.45;96335.72;1770562;80;21273;-81
2020/12/09 07:50:53;;;;;;;26.27;14.25;;;;;;;-2.09;88.47;96337.09;1770473;80;21621;-81
2020/12/09 07:53:23;;;;;;;22.67;14.10;;;;;;;-2.03;88.39;96336.27;1770554;80;21488;-81
2020/12/09 07:55:52;;;;;;;22.95;14.38;;;;;;;-2.08;88.18;96345.18;1770818;81;21107;-81
2020/12/09 07:58:19;;;;;;;25.23;14.75;;;;;;;-2.19;88.04;96346.60;1770363;80;21170;-81
2020/12/09 08:00:50;;;;;;;24.77;14.10;;;;;;;-2.22;87.97;96343.63;1770348;80;21257;-81
2020/12/09 08:03:27;;;;;;;24.77;14.55;;;;;;;-2.17;88.10;96338.10;1770430;80;21111;-81
2020/12/09 08:05:57;;;;;;;23.52;14.55;;;;;;;-2.08;88.20;96336.09;1770274;79;21132;-81
2020/12/09 08:08:27;;;;;;;23.67;13.28;;;;;;;-2.02;88.30;96337.06;1770534;80;21511;-81
2020/12/09 08:10:54;;;;;;;18.82;9.70;;;;;;;-1.98;88.28;96345.52;1770764;81;21126;-81
2020/12/09 08:13:28;;;;;;;23.18;13.55;;;;;;;-2.06;88.20;96340.58;1770906;79;21257;-81
2020/12/09 08:16:11;;;;;;;21.85;14.00;;;;;;;-1.99;88.21;96343.93;1770329;81;21142;-81
2020/12/09 08:18:40;;;;;;;26.62;14.28;;;;;;;-1.89;88.33;96344.30;1770250;79;21277;-81
2020/12/09 08:21:08;;;;;;;23.23;14.00;;;;;;;-1.76;88.44;96348.64;1769807;81;21170;-81
2020/12/09 08:23:46;;;;;;;22.00;14.40;;;;;;;-1.69;88.31;96346.00;1769592;81;21277;-81
2020/12/09 08:26:30;;;;;;;22.37;13.25;;;;;;;-1.63;88.32;96346.49;1769575;81;21266;-81
2020/12/09 08:28:59;;;;;;;23.27;14.83;;;;;;;-1.55;88.23;96343.16;1770264;79;21688;-81
2020/12/09 08:31:26;;;;;;;25.72;15.32;;;;;;;-1.48;88.15;96344.91;1769856;80;21139;-81
2020/12/09 08:33:55;;;;;;;23.12;13.93;;;;;;;-1.38;88.20;96352.56;1769692;81;21108;-81
2020/12/09 08:36:24;;;;;;;24.95;14.63;;;;;;;-1.29;88.20;96346.09;1769608;81;21495;-81
2020/12/09 08:38:59;;;;;;;21.55;13.08;;;;;;;-1.28;87.98;96350.28;1769682;81;21159;-81
2020/12/09 08:41:34;;;;;;;22.67;13.80;;;;;;;-1.26;87.86;96349.59;1770045;79;21159;-81
2020/12/09 08:44:07;;;;;;;22.95;14.60;;;;;;;-1.47;87.55;96349.91;1769641;80;21134;-81
2020/12/09 08:46:35;;;;;;;26.42;15.00;;;;;;;-1.43;87.69;96354.17;1769667;81;21119;-81
2020/12/09 08:49:03;;;;;;;20.55;11.93;;;;;;;-1.36;87.87;96352.34;1769589;81;21135;-81
2020/12/09 08:51:34;;;;;;;25.65;15.60;;;;;;;-1.33;87.71;96348.02;1769459;81;21112;-81
2020/12/09 08:54:05;;;;;;;28.40;16.05;;;;;;;-1.47;87.55;96346.00;1769790;81;21466;-81
2020/12/09 08:56:35;;;;;;;26.10;15.00;;;;;;;-1.54;87.45;96357.75;1769622;81;21479;-81
2020/12/09 08:59:03;;;;;;;26.33;15.28;;;;;;;-1.65;87.38;96357.60;1769909;81;21126;-81
2020/12/09 09:01:36;;;;;;;27.00;15.83;;;;;;;-1.78;87.33;96347.27;1769474;81;21468;-81
2020/12/09 09:04:06;;;;;;;25.60;14.83;;;;;;;-1.93;87.43;96350.13;1769542;81;21112;-81
2020/12/09 09:06:34;;;;;;;27.87;15.95;;;;;;;-1.82;87.79;96343.79;1769746;81;21119;-81
2020/12/09 09:09:03;;;;;;;28.60;16.27;;;;;;;-1.73;87.87;96348.73;1769746;81;21166;-80
2020/12/09 09:11:31;;;;;;;23.70;15.50;;;;;;;-1.65;87.99;96352.41;1770133;79;21138;-81
2020/12/09 09:13:58;;;;;;;29.77;18.15;;;;;;;-1.49;88.10;96353.22;1769514;81;21158;-80
2020/12/09 09:16:25;;;;;;;27.82;16.73;;;;;;;-1.47;87.89;96357.70;1769526;80;21483;-81
2020/12/09 09:18:52;;;;;;;26.10;14.83;;;;;;;-1.36;87.98;96362.25;1769515;80;21146;-81
2020/12/09 09:21:21;;;;;;;30.80;17.35;;;;;;;-1.27;87.88;96364.08;1770323;80;21172;-80
2020/12/09 09:23:48;;;;;;;22.77;14.23;;;;;;;-1.34;87.73;96342.03;1770352;81;21130;-81
2020/12/09 09:26:15;;;;;;;21.85;13.00;;;;;;;-1.32;87.48;96357.41;1770317;81;21146;-81
2020/12/09 09:28:43;;;;;;;23.57;15.55;;;;;;;-1.41;87.32;96356.86;1770403;80;21511;-80
2020/12/09 09:31:11;;;;;;;27.87;14.75;;;;;;;-1.55;87.25;96361.36;1770248;81;21115;-81
2020/12/09 09:33:38;;;;;;;27.20;15.08;;;;;;;-1.46;87.55;96361.89;1770266;80;21158;-81
2020/12/09 09:36:05;;;;;;;24.37;15.23;;;;;;;-1.35;87.61;96361.23;1770292;80;21495;-81
2020/12/09 09:38:32;;;;;;;26.42;15.60;;;;;;;-1.21;88.15;96348.45;1770479;80;21265;-80
2020/12/09 09:40:59;;;;;;;27.73;16.37;;;;;;;-0.97;87.79;96363.00;1770389;80;21139;-80
2020/12/09 09:43:26;;;;;;;29.00;16.30;;;;;;;-0.97;87.79;96363.00;1771030;79;21637;-80
2020/12/09 09:45:54;;;;;;;25.23;15.98;;;;;;;-1.12;87.58;96341.70;1770449;81;21636;-80
2020/12/09 09:48:21;;;;;;;26.02;16.55;;;;;;;-0.96;87.63;96367.99;1770647;81;21617;-80
2020/12/09 09:50:48;;;;;;;29.23;17.80;;;;;;;-0.89;87.72;96354.92;1770596;80;21614;-80
2020/12/09 09:53:16;;;;;;;34.23;18.55;;;;;;;-0.75;87.71;96372.02;1770546;81;21668;-81
2020/12/09 09:55:43;;;;;;;29.67;17.82;;;;;;;-0.66;87.64;96364.77;1770449;80;21289;-80
2020/12/09 09:58:10;;;;;;;37.67;20.92;;;;;;;-0.66;87.64;96364.77;1770754;80;21135;-80
2020/12/09 10:00:37;;;;;;;37.98;20.57;;;;;;;-0.64;87.55;96361.44;1770381;80;21151;-80
2020/12/09 10:03:05;;;;;;;49.67;25.08;;;;;;;-0.64;87.55;96361.44;1770875;81;21498;-80
2020/12/09 10:05:32;;;;;;;71.15;40.95;;;;;;;-0.62;87.34;96357.60;1770449;80;21245;-81
2020/12/09 10:07:59;;;;;;;62.10;36.80;;;;;;;-0.83;87.00;96358.00;1770495;80;21151;-81
2020/12/09 10:10:27;;;;;;;76.00;38.30;;;;;;;-1.02;86.92;96344.11;1770433;81;21289;-80
2020/12/09 10:12:54;;;;;;;66.75;36.23;;;;;;;-1.10;87.01;96352.19;1770980;79;21273;-81
2020/12/09 10:15:21;;;;;;;54.83;30.70;;;;;;;-1.29;87.32;96334.89;1770530;80;21289;-80
2020/12/09 10:17:48;;;;;;;68.62;33.67;;;;;;;-1.29;87.32;96334.89;1770427;80;21305;-80
2020/12/09 10:20:15;;;;;;;69.58;38.17;;;;;;;-1.22;87.37;96354.66;1769814;81;21122;-80
2020/12/09 10:22:43;;;;;;;57.98;31.05;;;;;;;-1.17;87.77;96347.52;1769903;81;21139;-80
2020/12/09 10:25:10;;;;;;;57.85;31.12;;;;;;;-1.17;87.77;96347.52;1769606;81;21143;-81
2020/12/09 10:27:37;;;;;;;57.78;30.60;;;;;;;-0.91;87.99;96358.24;1769743;80;21503;-80
2020/12/09 10:30:06;;;;;;;53.13;30.68;;;;;;;-0.75;88.16;96350.41;1769559;81;21142;-80
2020/12/09 10:32:33;;;;;;;54.42;28.90;;;;;;;-0.63;88.12;96349.50;1769745;81;21151;-80
2020/12/09 10:35:00;;;;;;;57.15;30.57;;;;;;;-0.54;88.09;96353.15;1769625;81;21478;-81
2020/12/09 10:37:27;;;;;;;62.25;32.42;;;;;;;-0.51;87.98;96354.02;1769566;81;21134;-80
2020/12/09 10:39:54;;;;;;;49.35;27.77;;;;;;;-0.50;87.80;96347.80;1769602;81;21181;-81
2020/12/09 10:42:23;;;;;;;59.88;30.20;;;;;;;-0.45;87.85;96345.33;1770175;79;21455;-81
2020/12/09 10:44:52;;;;;;;54.85;31.27;;;;;;;-0.50;87.62;96345.98;1769639;81;21155;-81
2020/12/09 10:47:20;;;;;;;53.55;28.85;;;;;;;-0.50;87.62;96345.98;1769525;80;21139;-80
2020/12/09 10:49:47;;;;;;;44.95;24.05;;;;;;;-0.44;87.54;96346.41;1769659;81;21139;-81
2020/12/09 10:52:15;;;;;;;46.95;25.70;;;;;;;-0.44;87.54;96346.41;1769511;81;21147;-81
2020/12/09 10:54:44;;;;;;;51.45;26.62;;;;;;;-0.44;87.57;96348.23;1769714;80;21478;-81
2020/12/09 10:57:11;;;;;;;42.73;25.45;;;;;;;-0.41;87.83;96349.92;1769661;80;21501;-81
2020/12/09 10:59:39;;;;;;;39.40;23.10;;;;;;;-0.26;87.80;96343.56;1769750;80;21135;-81
2020/12/09 11:02:07;;;;;;;49.15;26.62;;;;;;;-0.26;87.80;96343.56;1769671;80;21180;-81
2020/12/09 11:04:37;;;;;;;37.23;22.58;;;;;;;-0.26;87.65;96348.27;1769644;81;21127;-81
2020/12/09 11:07:11;;;;;;;56.73;29.07;;;;;;;-0.22;87.55;96340.30;1769595;80;21127;-81
2020/12/09 11:09:40;;;;;;;67.42;31.93;;;;;;;-0.22;87.55;96340.30;1769626;81;21428;-81
2020/12/09 11:12:07;;;;;;;48.00;26.85;;;;;;;-0.21;87.60;96340.59;1770231;79;21128;-81
2020/12/09 11:14:36;;;;;;;45.52;26.42;;;;;;;-0.19;87.66;96334.66;1769659;81;21526;-81
2020/12/09 11:17:06;;;;;;;35.38;20.25;;;;;;;-0.17;87.74;96333.13;1769561;81;21538;-81
2020/12/09 11:19:34;;;;;;;43.87;24.52;;;;;;;-0.17;87.60;96339.14;1769665;81;21526;-81
2020/12/09 11:22:02;;;;;;;40.10;22.50;;;;;;;-0.29;87.51;96339.56;1769690;81;21083;-80
2020/12/09 11:24:30;;;;;;;38.83;22.98;;;;;;;-0.53;87.47;96327.41;1769689;81;21483;-81
2020/12/09 11:26:57;;;;;;;39.60;22.27;;;;;;;-0.63;87.56;96331.28;1769532;81;21150;-81
2020/12/09 11:29:24;;;;;;;41.65;22.77;;;;;;;-0.61;87.75;96327.95;1769764;80;21131;-81
2020/12/09 11:31:54;;;;;;;35.68;21.50;;;;;;;-0.53;87.95;96328.20;1769512;81;21143;-81
2020/12/09 11:34:23;;;;;;;45.23;28.02;;;;;;;-0.55;88.06;96332.03;1769731;81;21178;-81